RJNY(METAR)
02/28 07:00
METAR RJNY 272200Z 03007KT 340V120 9999 FEW020 BKN030 06/01 Q1023
RMK 1CU020 5CU030 A3024=
戻る
トップページへ戻る
IMOC Co,.Ltd.